• Join FlightAware (Why Join?)
  • Login
  • US Flag 
11:24AM EST


 

Airport Tracker/Info


-or-


 

Live Flight TrackerFlight Track Log ✈ TMC899 ✈ 28-May-2013 ✈ KPIT - KASH

Flight Track Log - Related Links

Times and Time Zones

All times are in EDT time to prevent confusion due to time zone crossing. See the TMC899 flight status page for this flight to view local times or setup timezone preferences in your user account.

Time Position Orientation Groundspeed Altitude Reporting Facility
EDT Latitude Longitude Course Direction KTS MPH feet Rate Location/Type
06:29AM 40.4997 -80.1136 76° East 203 234 5,000  Level Cleveland Center
06:30AM 40.5683 -80.0692 26° Northeast 203 234 5,200 1,260 Climbing Cleveland Center
06:31AM 40.6075 -79.9842 59° Northeast 259 298 7,600 3,120 Climbing Cleveland Center
06:32AM 40.6467 -79.8744 65° Northeast 285 328 11,500 3,360 Climbing Cleveland Center
06:33AM 40.8839 -79.8302 76° East  Level FlightAware Approximate
06:33AM 40.6833 -79.7617 67° East 314 361 14,400  Level Cleveland Center
06:34AM 40.9097 -79.6973 76° East  Level FlightAware Approximate
06:34AM 40.7242 -79.6433 65° Northeast 333 383 17,100  Level Cleveland Center
06:35AM 40.7647 -79.5222 66° East 344 396 18,900 1,680 Climbing Cleveland Center
06:36AM 40.8092 -79.3869 66° East 372 428 20,500 1,860 Climbing Cleveland Center
06:37AM 40.8536 -79.2517 66° East 388 447 22,700 1,800 Climbing Cleveland Center
06:38AM 40.9000 -79.1161 66° East 393 452 24,100 1,620 Climbing Cleveland Center
06:39AM 40.9458 -78.9722 67° East 405 466 26,000 1,620 Climbing Cleveland Center
06:40AM 40.9939 -78.8281 66° East 411 473 27,400 1,260 Climbing Cleveland Center
06:41AM 41.0414 -78.6753 68° East 431 496 28,600 1,440 Climbing Cleveland Center
06:42AM 41.0911 -78.5250 66° East 436 502 30,300 1,740 Climbing Cleveland Center
06:43AM 41.1283 -78.3028 77° East 465 535 32,600 1,620 Climbing New York Center
06:44AM 41.1469 -78.1394 81° East 465 535 34,100 1,380 Climbing New York Center
06:45AM 41.1917 -77.9869 69° East 459 528 35,400 1,440 Climbing New York Center
06:46AM 41.2425 -77.8322 66° East 448 516 37,000 1,500 Climbing New York Center
06:47AM 41.2931 -77.6858 65° Northeast 448 516 38,400 1,500 Climbing New York Center
06:48AM 41.3450 -77.5389 65° Northeast 443 510 40,100 1,140 Climbing New York Center
06:49AM 41.3831 -77.4211 67° East 437 503 40,700 420 Climbing New York Center
06:50AM 41.4428 -77.2442 66° East 430 495 41,000 120 Climbing New York Center
06:51AM 41.4900 -77.1047 66° East 436 502 41,000  Level New York Center
06:52AM 41.5444 -76.9408 66° East 453 521 41,000  Level New York Center
06:53AM 41.5961 -76.7847 66° East 465 535 41,000  Level New York Center
06:54AM 41.6506 -76.6147 67° East 465 535 41,000  Level New York Center
06:55AM 41.7017 -76.4581 66° East 465 535 41,000  Level New York Center
06:57AM 41.7972 -76.1664 66° East 479 551 41,000  Level Boston Center
06:58AM 41.8481 -76.0078 67° East 469 540 41,000  Level Boston Center
06:59AM 41.8989 -75.8517 66° East 464 534 41,000  Level Boston Center
07:00AM 41.9453 -75.6922 69° East 458 527 41,000  Level Boston Center
07:01AM 41.9956 -75.5356 67° East 458 527 41,000  Level Boston Center
07:02AM 42.0456 -75.3758 67° East 458 527 41,000 -420 Level Boston Center
07:03AM 42.0914 -75.2128 69° East 458 527 40,200 -1,380 Descending Boston Center
07:04AM 42.1328 -75.0522 71° East 452 520 38,300 -1,920 Descending Boston Center
07:05AM 42.1739 -74.8886 71° East 457 526 36,400 -1,920 Descending Boston Center
07:06AM 42.2150 -74.7219 72° East 457 526 34,500 -1,920 Descending Boston Center
07:07AM 42.2578 -74.5553 71° East 462 532 32,600 -1,500 Descending Boston Center
07:08AM 42.3003 -74.3853 71° East 467 537 31,500 -1,140 Descending Boston Center
07:09AM 42.3406 -74.2208 72° East 461 531 30,400 -1,080 Descending Boston Center
07:10AM 42.3806 -74.0561 72° East 461 531 29,400 -1,020 Descending Boston Center
07:11AM 42.4225 -73.8858 71° East 461 531 28,400 -1,020 Descending Boston Center
07:12AM 42.4619 -73.7206 72° East 461 531 27,400 -1,080 Descending Boston Center
07:13AM 42.5033 -73.5525 71° East 461 531 26,300 -1,080 Descending Boston Center
07:14AM 42.5422 -73.3897 72° East 461 531 25,300 -1,140 Descending Boston Center
07:15AM 42.5853 -73.2072 72° East 471 542 24,100 -1,080 Descending Boston Center
07:16AM 42.6194 -73.0750 71° East 448 516 23,200 -1,080 Descending Boston Center
07:17AM 42.6558 -72.8947 75° East 437 503 21,800 -1,440 Descending Boston Center
07:18AM 42.6981 -72.7253 71° East 416 479 20,100 -1,500 Descending Boston Center
07:19AM 42.7275 -72.5956 73° East 406 467 18,800 -1,260 Descending Boston Center
07:20AM 42.7589 -72.4569 73° East 389 448 17,600 -1,440 Descending Boston Center
07:21AM 42.7858 -72.3183 75° East 384 442 16,000 -1,800 Descending Boston Center
07:22AM 42.7856 -72.1714 90° East 373 429 14,100 -2,100 Descending Boston Center
07:23AM 42.7747 -72.0214 96° East 367 422 11,900 -2,040 Descending Boston Center
07:24AM 42.7681 -71.9111 95° East 337 388 10,100 -1,980 Descending Boston Center
07:25AM 42.7592 -71.7869 96° East 307 353 8,000 -2,160 Descending Boston Center
07:26AM 42.7794 -71.6989 73° East 274 315 5,800 -2,520 Descending Boston Center
07:27AM 42.7786 -71.5944 91° East 253 291 3,000 -2,100 Descending Boston Center
07:28AM 42.7447 -71.5325 127° Southeast 230 265 1,700 -900 Descending Boston Center
07:29AM 42.7339 -71.4819 106° East 160 184 1,300 -540 Descending Boston Center
07:30AM 42.7653 -71.4842 357° North 81 93 700 -480 Descending Boston Center
07:31AM 42.7861 -71.4894 349° North 75 86 400 9,120 Descending Boston Center
07:32AM 42.8069 -71.4892 North 75 86 19,000 9,300 Climbing Boston Center
07:33AM 42.8278 -71.4889 North 75 86 19,000  Level Boston Center
07:34AM 42.8486 -71.4886 North 75 86 19,000  Level Boston Center
07:35AM 42.8611 -71.4883 North 75 86 19,000  Level Boston Center
07:38AM 42.8253 -71.4798 354° North  Level FlightAware Approximate